首页
METAR-TAF:

METAR-TAF

机场 :

南特, 法国

纬度: 47-10N, 经度: 001-36W, 海拔: 27米

当前天气观测

该预报发布于19分钟前的21:00 UTC
风速5节,风向西转西北
温度 13°C
湿度 88%
气压 1011 hPa
能见度10公里或以上
散云层高于3300英尺
阴天层高于12000英尺

METAR: LFRS 192100Z AUTO 30005KT 9999 SCT033 OVC120 13/11 Q1011 NOSIG

时间: 23:19 (21:19 UTC)

预报

该预报发布于4小时和19分钟前的17:00 UTC
预报有效从19日的 18点(UTC)到 20日的 24点(UTC)
风速4节,风向西北
能见度10公里或以上
散云层高于4000英尺
几率 30% :
短暂存在
从 19日的 18点(UTC)到 19日的 20点(UTC)
风速5节,风向多变,有时为15节阵风
散云层高于3000英尺, 塔状积云.
散云层高于4000英尺, 积雨云.
雷暴, 雨
几率 40% :
短暂存在
从 20日的 12点(UTC)到 20日的 18点(UTC)
散云层高于4000英尺, 塔状积云.
小阵雨

TAF: LFRS 191700Z 1918/2024 32004KT 9999 SCT040 PROB30 TEMPO 1918/1920 VRB05G15KT TSRA SCT030TCU SCT040CB PROB40 TEMPO 2012/2018 -SHRA SCT040TCU

超过4000个机场的气象观测和天气预报(METAR&TAF报告)。

可查询的气象台以黄色和红色小点在地图上表示。

将鼠标移到小点上方,可查看气象台名称。

然后点击查看天气观测和预报。

如需切换地图:点击带黑十字的绿色按钮放大地图;点击带横线的绿色按钮缩小地图;或者点击绿色箭头查看邻近地区的地图。


METAR-TAF: